sensor_id;sensor_type;location;lat;lon;timestamp;P1;durP1;ratioP1;P2;durP2;ratioP2
49722;SDS011;43484;43.608;1.458;2023-08-30T00:01:00;6.68;;;3.22;;
49722;SDS011;43484;43.608;1.458;2023-08-30T00:03:27;5.82;;;2.97;;
49722;SDS011;43484;43.608;1.458;2023-08-30T00:05:54;11.18;;;3.55;;
49722;SDS011;43484;43.608;1.458;2023-08-30T00:08:21;9.05;;;2.85;;
49722;SDS011;43484;43.608;1.458;2023-08-30T00:10:48;8.18;;;3.33;;
49722;SDS011;43484;43.608;1.458;2023-08-30T00:13:15;6.63;;;2.95;;
49722;SDS011;43484;43.608;1.458;2023-08-30T00:15:41;6.25;;;3.13;;
49722;SDS011;43484;43.608;1.458;2023-08-30T00:18:08;5.57;;;2.83;;
49722;SDS011;43484;43.608;1.458;2023-08-30T00:20:38;5.55;;;3.20;;
49722;SDS011;43484;43.608;1.458;2023-08-30T00:23:04;8.00;;;3.17;;
49722;SDS011;43484;43.608;1.458;2023-08-30T00:25:31;13.02;;;3.50;;
49722;SDS011;43484;43.608;1.458;2023-08-30T00:27:58;6.85;;;3.38;;
49722;SDS011;43484;43.608;1.458;2023-08-30T00:30:24;7.93;;;3.55;;
49722;SDS011;43484;43.608;1.458;2023-08-30T00:32:51;7.18;;;3.25;;
49722;SDS011;43484;43.608;1.458;2023-08-30T00:35:17;6.30;;;3.13;;
49722;SDS011;43484;43.608;1.458;2023-08-30T00:37:44;9.02;;;3.88;;
49722;SDS011;43484;43.608;1.458;2023-08-30T00:40:11;6.07;;;3.05;;
49722;SDS011;43484;43.608;1.458;2023-08-30T00:42:38;5.47;;;2.63;;
49722;SDS011;43484;43.608;1.458;2023-08-30T00:45:07;4.47;;;3.20;;
49722;SDS011;43484;43.608;1.458;2023-08-30T00:47:34;6.28;;;2.85;;
49722;SDS011;43484;43.608;1.458;2023-08-30T00:50:01;6.30;;;3.30;;
49722;SDS011;43484;43.608;1.458;2023-08-30T00:52:28;4.93;;;3.03;;
49722;SDS011;43484;43.608;1.458;2023-08-30T00:54:55;7.57;;;3.38;;
49722;SDS011;43484;43.608;1.458;2023-08-30T00:57:22;7.05;;;3.22;;
49722;SDS011;43484;43.608;1.458;2023-08-30T00:59:49;9.38;;;3.42;;
49722;SDS011;43484;43.608;1.458;2023-08-30T01:02:19;7.15;;;3.22;;
49722;SDS011;43484;43.608;1.458;2023-08-30T01:04:46;7.03;;;2.97;;
49722;SDS011;43484;43.608;1.458;2023-08-30T01:07:13;5.60;;;3.05;;
49722;SDS011;43484;43.608;1.458;2023-08-30T01:09:40;9.02;;;3.40;;
49722;SDS011;43484;43.608;1.458;2023-08-30T01:12:09;4.78;;;3.45;;
49722;SDS011;43484;43.608;1.458;2023-08-30T01:14:45;4.95;;;3.15;;
49722;SDS011;43484;43.608;1.458;2023-08-30T01:17:17;6.53;;;3.30;;
49722;SDS011;43484;43.608;1.458;2023-08-30T01:28:40;7.45;;;3.83;;
49722;SDS011;43484;43.608;1.458;2023-08-30T01:31:07;8.10;;;3.28;;
49722;SDS011;43484;43.608;1.458;2023-08-30T01:33:36;4.72;;;2.70;;
49722;SDS011;43484;43.608;1.458;2023-08-30T01:36:04;12.77;;;4.05;;
49722;SDS011;43484;43.608;1.458;2023-08-30T01:38:32;7.85;;;3.40;;
49722;SDS011;43484;43.608;1.458;2023-08-30T01:41:00;8.10;;;3.13;;
49722;SDS011;43484;43.608;1.458;2023-08-30T01:43:27;4.50;;;2.72;;
49722;SDS011;43484;43.608;1.458;2023-08-30T01:45:55;9.70;;;3.13;;
49722;SDS011;43484;43.608;1.458;2023-08-30T01:48:23;6.15;;;3.20;;
49722;SDS011;43484;43.608;1.458;2023-08-30T01:50:50;7.75;;;3.10;;
49722;SDS011;43484;43.608;1.458;2023-08-30T01:53:17;6.97;;;2.78;;
49722;SDS011;43484;43.608;1.458;2023-08-30T01:55:45;7.40;;;3.33;;
49722;SDS011;43484;43.608;1.458;2023-08-30T01:58:12;6.22;;;3.20;;
49722;SDS011;43484;43.608;1.458;2023-08-30T02:00:39;5.35;;;3.53;;
49722;SDS011;43484;43.608;1.458;2023-08-30T02:03:09;7.70;;;3.17;;
49722;SDS011;43484;43.608;1.458;2023-08-30T02:05:39;6.53;;;3.03;;
49722;SDS011;43484;43.608;1.458;2023-08-30T02:08:16;7.50;;;3.38;;
49722;SDS011;43484;43.608;1.458;2023-08-30T02:11:01;5.85;;;3.28;;
49722;SDS011;43484;43.608;1.458;2023-08-30T02:13:30;6.68;;;2.92;;
49722;SDS011;43484;43.608;1.458;2023-08-30T02:16:00;6.30;;;2.80;;
49722;SDS011;43484;43.608;1.458;2023-08-30T02:18:27;6.32;;;3.13;;
49722;SDS011;43484;43.608;1.458;2023-08-30T02:20:54;7.80;;;3.20;;
49722;SDS011;43484;43.608;1.458;2023-08-30T02:23:23;6.70;;;3.97;;
49722;SDS011;43484;43.608;1.458;2023-08-30T02:25:51;8.43;;;3.22;;
49722;SDS011;43484;43.608;1.458;2023-08-30T02:28:18;7.70;;;3.53;;
49722;SDS011;43484;43.608;1.458;2023-08-30T02:30:44;8.45;;;3.50;;
49722;SDS011;43484;43.608;1.458;2023-08-30T02:33:11;7.00;;;3.13;;
49722;SDS011;43484;43.608;1.458;2023-08-30T02:35:38;7.40;;;2.95;;
49722;SDS011;43484;43.608;1.458;2023-08-30T02:38:05;7.50;;;3.67;;
49722;SDS011;43484;43.608;1.458;2023-08-30T02:40:32;7.78;;;3.15;;
49722;SDS011;43484;43.608;1.458;2023-08-30T02:42:58;8.52;;;3.30;;
49722;SDS011;43484;43.608;1.458;2023-08-30T02:45:25;9.60;;;3.40;;
49722;SDS011;43484;43.608;1.458;2023-08-30T02:47:54;5.40;;;2.90;;
49722;SDS011;43484;43.608;1.458;2023-08-30T02:50:23;8.43;;;3.85;;
49722;SDS011;43484;43.608;1.458;2023-08-30T02:52:50;8.45;;;3.20;;
49722;SDS011;43484;43.608;1.458;2023-08-30T02:55:18;8.73;;;3.38;;
49722;SDS011;43484;43.608;1.458;2023-08-30T02:57:45;6.10;;;2.88;;
49722;SDS011;43484;43.608;1.458;2023-08-30T03:00:12;7.50;;;3.17;;
49722;SDS011;43484;43.608;1.458;2023-08-30T03:02:40;6.15;;;2.97;;
49722;SDS011;43484;43.608;1.458;2023-08-30T03:05:06;6.00;;;3.33;;
49722;SDS011;43484;43.608;1.458;2023-08-30T03:07:33;6.57;;;2.85;;
49722;SDS011;43484;43.608;1.458;2023-08-30T03:10:00;7.07;;;3.63;;
49722;SDS011;43484;43.608;1.458;2023-08-30T03:12:26;9.82;;;3.90;;
49722;SDS011;43484;43.608;1.458;2023-08-30T03:14:55;8.25;;;3.63;;
49722;SDS011;43484;43.608;1.458;2023-08-30T03:17:21;14.77;;;3.58;;
49722;SDS011;43484;43.608;1.458;2023-08-30T03:19:50;4.88;;;3.67;;
49722;SDS011;43484;43.608;1.458;2023-08-30T03:22:19;7.20;;;3.30;;
49722;SDS011;43484;43.608;1.458;2023-08-30T03:24:45;6.03;;;3.45;;
49722;SDS011;43484;43.608;1.458;2023-08-30T03:27:12;7.63;;;3.65;;
49722;SDS011;43484;43.608;1.458;2023-08-30T03:29:39;8.88;;;3.45;;
49722;SDS011;43484;43.608;1.458;2023-08-30T03:32:05;10.27;;;3.50;;
49722;SDS011;43484;43.608;1.458;2023-08-30T03:34:32;10.43;;;4.03;;
49722;SDS011;43484;43.608;1.458;2023-08-30T03:36:58;11.60;;;3.70;;
49722;SDS011;43484;43.608;1.458;2023-08-30T03:39:25;6.30;;;3.50;;
49722;SDS011;43484;43.608;1.458;2023-08-30T03:41:52;8.27;;;3.35;;
49722;SDS011;43484;43.608;1.458;2023-08-30T03:44:18;16.92;;;4.57;;
49722;SDS011;43484;43.608;1.458;2023-08-30T03:46:45;5.65;;;3.58;;
49722;SDS011;43484;43.608;1.458;2023-08-30T03:49:11;9.02;;;4.10;;
49722;SDS011;43484;43.608;1.458;2023-08-30T03:51:38;11.07;;;4.13;;
49722;SDS011;43484;43.608;1.458;2023-08-30T03:54:05;6.90;;;3.92;;
49722;SDS011;43484;43.608;1.458;2023-08-30T03:56:32;4.90;;;3.33;;
49722;SDS011;43484;43.608;1.458;2023-08-30T03:58:59;7.15;;;3.20;;
49722;SDS011;43484;43.608;1.458;2023-08-30T04:01:27;7.72;;;3.47;;
49722;SDS011;43484;43.608;1.458;2023-08-30T04:03:54;11.20;;;4.15;;
49722;SDS011;43484;43.608;1.458;2023-08-30T04:06:20;9.23;;;3.85;;
49722;SDS011;43484;43.608;1.458;2023-08-30T04:08:48;7.25;;;3.40;;
49722;SDS011;43484;43.608;1.458;2023-08-30T04:11:14;8.95;;;4.75;;
49722;SDS011;43484;43.608;1.458;2023-08-30T04:13:41;8.13;;;4.50;;
49722;SDS011;43484;43.608;1.458;2023-08-30T04:16:07;13.13;;;4.05;;
49722;SDS011;43484;43.608;1.458;2023-08-30T04:18:34;9.38;;;3.95;;
49722;SDS011;43484;43.608;1.458;2023-08-30T04:21:01;11.93;;;5.00;;
49722;SDS011;43484;43.608;1.458;2023-08-30T04:23:29;10.55;;;3.75;;
49722;SDS011;43484;43.608;1.458;2023-08-30T04:25:55;12.13;;;3.97;;
49722;SDS011;43484;43.608;1.458;2023-08-30T04:28:22;7.97;;;4.03;;
49722;SDS011;43484;43.608;1.458;2023-08-30T04:30:49;7.82;;;4.00;;
49722;SDS011;43484;43.608;1.458;2023-08-30T04:33:15;9.02;;;3.92;;
49722;SDS011;43484;43.608;1.458;2023-08-30T04:35:42;7.82;;;3.65;;
49722;SDS011;43484;43.608;1.458;2023-08-30T04:38:09;8.00;;;4.05;;
49722;SDS011;43484;43.608;1.458;2023-08-30T04:40:36;10.02;;;4.70;;
49722;SDS011;43484;43.608;1.458;2023-08-30T04:43:02;9.27;;;4.43;;
49722;SDS011;43484;43.608;1.458;2023-08-30T04:45:29;8.18;;;4.15;;
49722;SDS011;43484;43.608;1.458;2023-08-30T04:47:56;10.13;;;4.65;;
49722;SDS011;43484;43.608;1.458;2023-08-30T04:50:23;11.65;;;4.45;;
49722;SDS011;43484;43.608;1.458;2023-08-30T04:52:49;10.32;;;4.10;;
49722;SDS011;43484;43.608;1.458;2023-08-30T04:55:16;10.10;;;4.50;;
49722;SDS011;43484;43.608;1.458;2023-08-30T04:57:43;10.52;;;4.20;;
49722;SDS011;43484;43.608;1.458;2023-08-30T05:00:14;13.15;;;4.20;;
49722;SDS011;43484;43.608;1.458;2023-08-30T05:02:40;14.80;;;4.35;;
49722;SDS011;43484;43.608;1.458;2023-08-30T05:05:10;7.10;;;3.95;;
49722;SDS011;43484;43.608;1.458;2023-08-30T05:07:36;7.60;;;3.55;;
49722;SDS011;43484;43.608;1.458;2023-08-30T05:10:03;8.88;;;4.28;;
49722;SDS011;43484;43.608;1.458;2023-08-30T05:12:30;6.38;;;3.80;;
49722;SDS011;43484;43.608;1.458;2023-08-30T05:14:57;12.02;;;4.18;;
49722;SDS011;43484;43.608;1.458;2023-08-30T05:17:23;12.20;;;4.47;;
49722;SDS011;43484;43.608;1.458;2023-08-30T05:19:50;10.43;;;4.15;;
49722;SDS011;43484;43.608;1.458;2023-08-30T05:22:17;8.55;;;4.20;;
49722;SDS011;43484;43.608;1.458;2023-08-30T05:24:44;10.73;;;4.40;;
49722;SDS011;43484;43.608;1.458;2023-08-30T05:27:10;9.35;;;4.70;;
49722;SDS011;43484;43.608;1.458;2023-08-30T05:29:37;8.23;;;4.60;;
49722;SDS011;43484;43.608;1.458;2023-08-30T05:32:04;8.05;;;4.00;;
49722;SDS011;43484;43.608;1.458;2023-08-30T05:34:31;10.95;;;4.35;;
49722;SDS011;43484;43.608;1.458;2023-08-30T05:36:58;9.07;;;4.65;;
49722;SDS011;43484;43.608;1.458;2023-08-30T05:39:24;8.68;;;4.47;;
49722;SDS011;43484;43.608;1.458;2023-08-30T05:41:51;8.80;;;4.35;;
49722;SDS011;43484;43.608;1.458;2023-08-30T05:44:17;7.95;;;3.90;;
49722;SDS011;43484;43.608;1.458;2023-08-30T05:46:44;10.25;;;4.30;;
49722;SDS011;43484;43.608;1.458;2023-08-30T05:49:11;5.63;;;3.80;;
49722;SDS011;43484;43.608;1.458;2023-08-30T05:51:37;7.35;;;3.78;;
49722;SDS011;43484;43.608;1.458;2023-08-30T05:54:04;10.68;;;4.10;;
49722;SDS011;43484;43.608;1.458;2023-08-30T05:56:31;8.30;;;3.88;;
49722;SDS011;43484;43.608;1.458;2023-08-30T05:58:57;8.13;;;3.92;;
49722;SDS011;43484;43.608;1.458;2023-08-30T06:01:24;11.30;;;4.47;;
49722;SDS011;43484;43.608;1.458;2023-08-30T06:03:51;6.50;;;4.20;;
49722;SDS011;43484;43.608;1.458;2023-08-30T06:06:17;6.28;;;3.78;;
49722;SDS011;43484;43.608;1.458;2023-08-30T06:08:44;8.52;;;3.65;;
49722;SDS011;43484;43.608;1.458;2023-08-30T06:11:11;10.43;;;5.22;;
49722;SDS011;43484;43.608;1.458;2023-08-30T06:13:37;11.27;;;4.35;;
49722;SDS011;43484;43.608;1.458;2023-08-30T06:16:04;9.40;;;4.07;;
49722;SDS011;43484;43.608;1.458;2023-08-30T06:18:31;10.07;;;4.10;;
49722;SDS011;43484;43.608;1.458;2023-08-30T06:21:01;9.02;;;3.95;;
49722;SDS011;43484;43.608;1.458;2023-08-30T06:23:28;8.10;;;3.95;;
49722;SDS011;43484;43.608;1.458;2023-08-30T06:25:55;7.90;;;4.07;;
49722;SDS011;43484;43.608;1.458;2023-08-30T06:28:22;5.97;;;3.83;;
49722;SDS011;43484;43.608;1.458;2023-08-30T06:30:49;8.68;;;3.63;;
49722;SDS011;43484;43.608;1.458;2023-08-30T06:33:17;8.98;;;4.55;;
49722;SDS011;43484;43.608;1.458;2023-08-30T06:35:43;8.43;;;4.55;;
49722;SDS011;43484;43.608;1.458;2023-08-30T06:38:10;12.25;;;4.30;;
49722;SDS011;43484;43.608;1.458;2023-08-30T06:40:42;6.32;;;3.78;;
49722;SDS011;43484;43.608;1.458;2023-08-30T06:43:09;4.80;;;3.50;;
49722;SDS011;43484;43.608;1.458;2023-08-30T06:45:37;8.52;;;4.60;;
49722;SDS011;43484;43.608;1.458;2023-08-30T06:48:05;9.55;;;3.83;;
49722;SDS011;43484;43.608;1.458;2023-08-30T06:50:34;8.48;;;3.63;;
49722;SDS011;43484;43.608;1.458;2023-08-30T06:53:02;8.95;;;3.88;;
49722;SDS011;43484;43.608;1.458;2023-08-30T06:55:29;6.20;;;3.63;;
49722;SDS011;43484;43.608;1.458;2023-08-30T06:57:56;7.75;;;3.95;;
49722;SDS011;43484;43.608;1.458;2023-08-30T07:00:23;10.95;;;3.88;;
49722;SDS011;43484;43.608;1.458;2023-08-30T07:02:50;5.28;;;3.33;;
49722;SDS011;43484;43.608;1.458;2023-08-30T07:05:16;6.65;;;3.55;;
49722;SDS011;43484;43.608;1.458;2023-08-30T07:07:43;7.45;;;3.28;;
49722;SDS011;43484;43.608;1.458;2023-08-30T07:10:10;20.38;;;4.18;;
49722;SDS011;43484;43.608;1.458;2023-08-30T07:12:36;9.45;;;4.35;;
49722;SDS011;43484;43.608;1.458;2023-08-30T07:15:03;10.70;;;4.18;;
49722;SDS011;43484;43.608;1.458;2023-08-30T07:17:30;5.90;;;3.67;;
49722;SDS011;43484;43.608;1.458;2023-08-30T07:20:16;5.18;;;3.28;;
49722;SDS011;43484;43.608;1.458;2023-08-30T07:22:43;10.85;;;3.67;;
49722;SDS011;43484;43.608;1.458;2023-08-30T07:25:09;7.68;;;3.85;;
49722;SDS011;43484;43.608;1.458;2023-08-30T07:27:36;7.57;;;3.83;;
49722;SDS011;43484;43.608;1.458;2023-08-30T07:30:03;9.43;;;3.72;;
49722;SDS011;43484;43.608;1.458;2023-08-30T07:32:30;7.97;;;3.88;;
49722;SDS011;43484;43.608;1.458;2023-08-30T07:34:57;9.15;;;4.05;;
49722;SDS011;43484;43.608;1.458;2023-08-30T07:37:25;6.90;;;3.63;;
49722;SDS011;43484;43.608;1.458;2023-08-30T07:39:52;8.50;;;4.03;;
49722;SDS011;43484;43.608;1.458;2023-08-30T07:42:19;6.03;;;3.95;;
49722;SDS011;43484;43.608;1.458;2023-08-30T07:44:46;8.55;;;3.85;;
49722;SDS011;43484;43.608;1.458;2023-08-30T07:47:12;6.18;;;3.30;;
49722;SDS011;43484;43.608;1.458;2023-08-30T07:49:39;7.10;;;4.05;;
49722;SDS011;43484;43.608;1.458;2023-08-30T07:52:06;7.43;;;3.30;;
49722;SDS011;43484;43.608;1.458;2023-08-30T07:54:37;6.95;;;3.83;;
49722;SDS011;43484;43.608;1.458;2023-08-30T07:57:05;7.20;;;4.13;;
49722;SDS011;43484;43.608;1.458;2023-08-30T07:59:33;7.28;;;3.58;;
49722;SDS011;43484;43.608;1.458;2023-08-30T08:02:01;5.65;;;3.58;;
49722;SDS011;43484;43.608;1.458;2023-08-30T08:04:28;9.02;;;3.65;;
49722;SDS011;43484;43.608;1.458;2023-08-30T08:06:55;10.73;;;3.47;;
49722;SDS011;43484;43.608;1.458;2023-08-30T08:09:22;5.80;;;2.83;;
49722;SDS011;43484;43.608;1.458;2023-08-30T08:11:49;3.78;;;2.88;;
49722;SDS011;43484;43.608;1.458;2023-08-30T08:14:15;8.85;;;3.00;;
49722;SDS011;43484;43.608;1.458;2023-08-30T08:16:42;8.30;;;3.05;;
49722;SDS011;43484;43.608;1.458;2023-08-30T08:19:09;5.90;;;2.80;;
49722;SDS011;43484;43.608;1.458;2023-08-30T08:21:35;7.30;;;2.75;;
49722;SDS011;43484;43.608;1.458;2023-08-30T08:24:02;8.25;;;2.80;;
49722;SDS011;43484;43.608;1.458;2023-08-30T08:26:29;7.13;;;3.35;;
49722;SDS011;43484;43.608;1.458;2023-08-30T08:28:56;7.97;;;3.40;;
49722;SDS011;43484;43.608;1.458;2023-08-30T08:31:23;9.40;;;3.10;;
49722;SDS011;43484;43.608;1.458;2023-08-30T08:33:51;4.20;;;2.60;;
49722;SDS011;43484;43.608;1.458;2023-08-30T08:36:30;7.88;;;2.67;;
49722;SDS011;43484;43.608;1.458;2023-08-30T08:38:57;7.80;;;3.35;;
49722;SDS011;43484;43.608;1.458;2023-08-30T08:41:25;4.50;;;2.40;;
49722;SDS011;43484;43.608;1.458;2023-08-30T08:44:00;7.70;;;3.42;;
49722;SDS011;43484;43.608;1.458;2023-08-30T08:46:27;3.63;;;2.70;;
49722;SDS011;43484;43.608;1.458;2023-08-30T08:48:56;7.18;;;3.22;;
49722;SDS011;43484;43.608;1.458;2023-08-30T08:51:23;9.00;;;3.22;;
49722;SDS011;43484;43.608;1.458;2023-08-30T08:53:50;4.35;;;2.80;;
49722;SDS011;43484;43.608;1.458;2023-08-30T08:56:17;5.55;;;3.33;;
49722;SDS011;43484;43.608;1.458;2023-08-30T08:58:45;10.20;;;3.25;;
49722;SDS011;43484;43.608;1.458;2023-08-30T09:01:13;6.80;;;2.78;;
49722;SDS011;43484;43.608;1.458;2023-08-30T09:03:59;8.38;;;3.42;;
49722;SDS011;43484;43.608;1.458;2023-08-30T09:06:27;4.90;;;2.90;;
49722;SDS011;43484;43.608;1.458;2023-08-30T09:08:55;4.28;;;3.65;;
49722;SDS011;43484;43.608;1.458;2023-08-30T09:11:21;10.40;;;4.57;;
49722;SDS011;43484;43.608;1.458;2023-08-30T09:14:05;10.33;;;4.20;;
49722;SDS011;43484;43.608;1.458;2023-08-30T09:16:32;9.65;;;3.63;;
49722;SDS011;43484;43.608;1.458;2023-08-30T09:21:35;8.68;;;4.22;;
49722;SDS011;43484;43.608;1.458;2023-08-30T09:24:03;7.80;;;4.47;;
49722;SDS011;43484;43.608;1.458;2023-08-30T09:26:31;3.60;;;3.30;;
49722;SDS011;43484;43.608;1.458;2023-08-30T09:29:05;5.32;;;2.92;;
49722;SDS011;43484;43.608;1.458;2023-08-30T09:31:36;7.53;;;2.50;;
49722;SDS011;43484;43.608;1.458;2023-08-30T09:34:04;5.13;;;2.83;;
49722;SDS011;43484;43.608;1.458;2023-08-30T09:36:38;6.40;;;3.13;;
49722;SDS011;43484;43.608;1.458;2023-08-30T09:39:10;6.57;;;2.70;;
49722;SDS011;43484;43.608;1.458;2023-08-30T09:41:42;10.70;;;4.28;;
49722;SDS011;43484;43.608;1.458;2023-08-30T09:44:10;7.00;;;3.33;;
49722;SDS011;43484;43.608;1.458;2023-08-30T09:46:43;7.95;;;2.88;;
49722;SDS011;43484;43.608;1.458;2023-08-30T09:49:21;4.35;;;3.05;;
49722;SDS011;43484;43.608;1.458;2023-08-30T09:51:49;4.57;;;3.08;;
49722;SDS011;43484;43.608;1.458;2023-08-30T09:54:38;4.55;;;2.85;;
49722;SDS011;43484;43.608;1.458;2023-08-30T09:57:08;5.38;;;3.00;;
49722;SDS011;43484;43.608;1.458;2023-08-30T09:59:35;13.02;;;3.38;;
49722;SDS011;43484;43.608;1.458;2023-08-30T10:02:02;5.47;;;2.80;;
49722;SDS011;43484;43.608;1.458;2023-08-30T10:04:31;7.35;;;3.10;;
49722;SDS011;43484;43.608;1.458;2023-08-30T10:06:59;10.85;;;3.42;;
49722;SDS011;43484;43.608;1.458;2023-08-30T10:09:29;6.10;;;2.90;;
49722;SDS011;43484;43.608;1.458;2023-08-30T10:11:57;7.18;;;4.03;;
49722;SDS011;43484;43.608;1.458;2023-08-30T10:14:24;7.57;;;3.90;;
49722;SDS011;43484;43.608;1.458;2023-08-30T10:16:51;6.15;;;3.40;;
49722;SDS011;43484;43.608;1.458;2023-08-30T10:19:27;5.53;;;3.40;;
49722;SDS011;43484;43.608;1.458;2023-08-30T10:21:56;10.77;;;3.67;;
49722;SDS011;43484;43.608;1.458;2023-08-30T10:27:36;6.97;;;3.35;;
49722;SDS011;43484;43.608;1.458;2023-08-30T10:30:06;5.78;;;3.90;;
49722;SDS011;43484;43.608;1.458;2023-08-30T10:32:39;6.72;;;3.17;;
49722;SDS011;43484;43.608;1.458;2023-08-30T10:35:09;8.38;;;3.65;;
49722;SDS011;43484;43.608;1.458;2023-08-30T10:37:37;7.10;;;3.55;;
49722;SDS011;43484;43.608;1.458;2023-08-30T10:40:04;12.57;;;8.45;;
49722;SDS011;43484;43.608;1.458;2023-08-30T10:42:32;9.48;;;2.97;;
49722;SDS011;43484;43.608;1.458;2023-08-30T10:45:00;6.35;;;3.08;;
49722;SDS011;43484;43.608;1.458;2023-08-30T10:47:35;8.45;;;2.53;;
49722;SDS011;43484;43.608;1.458;2023-08-30T10:50:05;3.58;;;2.72;;
49722;SDS011;43484;43.608;1.458;2023-08-30T10:52:33;6.25;;;2.25;;
49722;SDS011;43484;43.608;1.458;2023-08-30T10:57:40;4.18;;;2.22;;
49722;SDS011;43484;43.608;1.458;2023-08-30T11:00:09;6.18;;;2.17;;
49722;SDS011;43484;43.608;1.458;2023-08-30T11:02:43;3.38;;;2.33;;
49722;SDS011;43484;43.608;1.458;2023-08-30T11:05:12;5.68;;;2.65;;
49722;SDS011;43484;43.608;1.458;2023-08-30T11:07:39;4.13;;;2.70;;
49722;SDS011;43484;43.608;1.458;2023-08-30T11:10:06;6.85;;;2.70;;
49722;SDS011;43484;43.608;1.458;2023-08-30T11:12:35;3.83;;;2.38;;
49722;SDS011;43484;43.608;1.458;2023-08-30T11:15:02;8.65;;;2.80;;
49722;SDS011;43484;43.608;1.458;2023-08-30T11:17:29;4.28;;;2.70;;
49722;SDS011;43484;43.608;1.458;2023-08-30T11:20:06;5.38;;;3.03;;
49722;SDS011;43484;43.608;1.458;2023-08-30T11:22:40;5.97;;;3.85;;
49722;SDS011;43484;43.608;1.458;2023-08-30T11:25:09;6.22;;;3.00;;
49722;SDS011;43484;43.608;1.458;2023-08-30T11:27:37;3.88;;;1.70;;
49722;SDS011;43484;43.608;1.458;2023-08-30T11:30:05;3.85;;;2.20;;
49722;SDS011;43484;43.608;1.458;2023-08-30T11:32:35;3.92;;;2.03;;
49722;SDS011;43484;43.608;1.458;2023-08-30T11:35:03;3.30;;;2.17;;
49722;SDS011;43484;43.608;1.458;2023-08-30T11:37:30;5.65;;;2.15;;
49722;SDS011;43484;43.608;1.458;2023-08-30T11:39:58;9.88;;;5.78;;
49722;SDS011;43484;43.608;1.458;2023-08-30T11:42:25;3.47;;;1.67;;
49722;SDS011;43484;43.608;1.458;2023-08-30T11:44:52;3.80;;;2.38;;
49722;SDS011;43484;43.608;1.458;2023-08-30T11:47:20;4.65;;;2.03;;
49722;SDS011;43484;43.608;1.458;2023-08-30T11:49:49;7.75;;;1.90;;
49722;SDS011;43484;43.608;1.458;2023-08-30T11:52:18;2.90;;;1.90;;
49722;SDS011;43484;43.608;1.458;2023-08-30T11:54:47;9.93;;;6.55;;
49722;SDS011;43484;43.608;1.458;2023-08-30T11:57:15;3.95;;;2.30;;
49722;SDS011;43484;43.608;1.458;2023-08-30T11:59:41;2.53;;;2.00;;
49722;SDS011;43484;43.608;1.458;2023-08-30T12:02:11;3.83;;;1.83;;
49722;SDS011;43484;43.608;1.458;2023-08-30T12:04:42;2.83;;;2.05;;
49722;SDS011;43484;43.608;1.458;2023-08-30T12:07:23;8.98;;;1.98;;
49722;SDS011;43484;43.608;1.458;2023-08-30T12:09:51;4.45;;;2.13;;
49722;SDS011;43484;43.608;1.458;2023-08-30T12:12:18;4.78;;;1.98;;
49722;SDS011;43484;43.608;1.458;2023-08-30T12:14:45;4.93;;;1.65;;
49722;SDS011;43484;43.608;1.458;2023-08-30T12:17:11;2.42;;;1.80;;
49722;SDS011;43484;43.608;1.458;2023-08-30T12:19:39;3.40;;;1.88;;
49722;SDS011;43484;43.608;1.458;2023-08-30T12:22:08;4.72;;;2.35;;
49722;SDS011;43484;43.608;1.458;2023-08-30T12:24:42;3.22;;;1.52;;
49722;SDS011;43484;43.608;1.458;2023-08-30T12:27:12;2.83;;;1.15;;
49722;SDS011;43484;43.608;1.458;2023-08-30T12:29:39;3.30;;;1.90;;
49722;SDS011;43484;43.608;1.458;2023-08-30T12:32:07;8.32;;;6.15;;
49722;SDS011;43484;43.608;1.458;2023-08-30T12:34:34;2.05;;;1.50;;
49722;SDS011;43484;43.608;1.458;2023-08-30T12:37:01;3.45;;;1.40;;
49722;SDS011;43484;43.608;1.458;2023-08-30T12:39:31;3.08;;;1.55;;
49722;SDS011;43484;43.608;1.458;2023-08-30T12:41:58;3.45;;;2.50;;
49722;SDS011;43484;43.608;1.458;2023-08-30T12:44:24;4.25;;;1.90;;
49722;SDS011;43484;43.608;1.458;2023-08-30T12:46:51;3.00;;;1.90;;
49722;SDS011;43484;43.608;1.458;2023-08-30T12:49:18;4.55;;;1.70;;
49722;SDS011;43484;43.608;1.458;2023-08-30T12:51:44;2.22;;;1.58;;
49722;SDS011;43484;43.608;1.458;2023-08-30T12:54:11;4.53;;;1.90;;
49722;SDS011;43484;43.608;1.458;2023-08-30T12:56:38;2.67;;;2.28;;
49722;SDS011;43484;43.608;1.458;2023-08-30T12:59:05;2.83;;;1.80;;
49722;SDS011;43484;43.608;1.458;2023-08-30T13:01:31;3.45;;;1.50;;
49722;SDS011;43484;43.608;1.458;2023-08-30T13:03:58;2.45;;;1.42;;
49722;SDS011;43484;43.608;1.458;2023-08-30T13:06:25;2.35;;;1.20;;
49722;SDS011;43484;43.608;1.458;2023-08-30T13:08:51;2.83;;;2.00;;
49722;SDS011;43484;43.608;1.458;2023-08-30T13:11:18;1.80;;;1.00;;
49722;SDS011;43484;43.608;1.458;2023-08-30T13:13:44;2.95;;;2.15;;
49722;SDS011;43484;43.608;1.458;2023-08-30T13:16:11;3.78;;;1.85;;
49722;SDS011;43484;43.608;1.458;2023-08-30T13:18:38;6.35;;;4.55;;
49722;SDS011;43484;43.608;1.458;2023-08-30T13:21:04;6.85;;;1.67;;
49722;SDS011;43484;43.608;1.458;2023-08-30T13:23:31;1.63;;;0.98;;
49722;SDS011;43484;43.608;1.458;2023-08-30T13:25:57;1.60;;;1.02;;
49722;SDS011;43484;43.608;1.458;2023-08-30T13:28:24;3.47;;;1.27;;
49722;SDS011;43484;43.608;1.458;2023-08-30T13:30:50;3.83;;;1.73;;
49722;SDS011;43484;43.608;1.458;2023-08-30T13:33:18;1.90;;;0.70;;
49722;SDS011;43484;43.608;1.458;2023-08-30T13:35:48;4.43;;;0.90;;
49722;SDS011;43484;43.608;1.458;2023-08-30T13:38:17;1.77;;;0.85;;
49722;SDS011;43484;43.608;1.458;2023-08-30T13:40:44;3.85;;;1.20;;
49722;SDS011;43484;43.608;1.458;2023-08-30T13:43:12;2.70;;;2.10;;
49722;SDS011;43484;43.608;1.458;2023-08-30T13:45:39;2.30;;;1.02;;
49722;SDS011;43484;43.608;1.458;2023-08-30T13:48:05;4.10;;;0.90;;
49722;SDS011;43484;43.608;1.458;2023-08-30T13:50:33;3.13;;;0.93;;
49722;SDS011;43484;43.608;1.458;2023-08-30T13:52:59;3.35;;;1.20;;
49722;SDS011;43484;43.608;1.458;2023-08-30T13:55:26;2.42;;;1.05;;
49722;SDS011;43484;43.608;1.458;2023-08-30T13:57:53;4.80;;;1.23;;
49722;SDS011;43484;43.608;1.458;2023-08-30T14:00:20;2.17;;;1.25;;
49722;SDS011;43484;43.608;1.458;2023-08-30T14:02:47;4.05;;;1.20;;
49722;SDS011;43484;43.608;1.458;2023-08-30T14:05:13;5.07;;;0.95;;
49722;SDS011;43484;43.608;1.458;2023-08-30T14:07:40;1.42;;;1.00;;
49722;SDS011;43484;43.608;1.458;2023-08-30T14:10:07;1.38;;;0.85;;
49722;SDS011;43484;43.608;1.458;2023-08-30T14:12:33;2.78;;;1.10;;
49722;SDS011;43484;43.608;1.458;2023-08-30T14:15:00;1.90;;;1.00;;
49722;SDS011;43484;43.608;1.458;2023-08-30T14:17:27;1.77;;;0.95;;
49722;SDS011;43484;43.608;1.458;2023-08-30T14:19:54;1.73;;;1.08;;
49722;SDS011;43484;43.608;1.458;2023-08-30T14:22:21;3.35;;;0.93;;
49722;SDS011;43484;43.608;1.458;2023-08-30T14:24:48;1.92;;;1.20;;
49722;SDS011;43484;43.608;1.458;2023-08-30T14:27:34;1.52;;;1.15;;
49722;SDS011;43484;43.608;1.458;2023-08-30T14:30:01;1.25;;;1.00;;
49722;SDS011;43484;43.608;1.458;2023-08-30T14:32:28;1.30;;;1.10;;
49722;SDS011;43484;43.608;1.458;2023-08-30T14:34:55;1.30;;;1.17;;
49722;SDS011;43484;43.608;1.458;2023-08-30T14:37:21;4.65;;;1.15;;
49722;SDS011;43484;43.608;1.458;2023-08-30T14:39:48;2.22;;;1.10;;
49722;SDS011;43484;43.608;1.458;2023-08-30T14:42:15;1.48;;;1.00;;
49722;SDS011;43484;43.608;1.458;2023-08-30T14:44:41;2.10;;;1.27;;
49722;SDS011;43484;43.608;1.458;2023-08-30T14:47:08;2.20;;;1.00;;
49722;SDS011;43484;43.608;1.458;2023-08-30T14:49:35;1.70;;;1.20;;
49722;SDS011;43484;43.608;1.458;2023-08-30T14:52:01;1.88;;;1.10;;
49722;SDS011;43484;43.608;1.458;2023-08-30T14:54:28;1.45;;;1.35;;
49722;SDS011;43484;43.608;1.458;2023-08-30T14:56:55;1.10;;;0.95;;
49722;SDS011;43484;43.608;1.458;2023-08-30T14:59:21;3.38;;;1.20;;
49722;SDS011;43484;43.608;1.458;2023-08-30T15:01:48;1.80;;;1.10;;
49722;SDS011;43484;43.608;1.458;2023-08-30T15:04:15;2.00;;;1.00;;
49722;SDS011;43484;43.608;1.458;2023-08-30T15:06:42;3.20;;;1.00;;